sensor_id;sensor_type;location;lat;lon;timestamp;P1;durP1;ratioP1;P2;durP2;ratioP2
71769;SDS011;66386;52.122;5.420;2023-05-14T00:01:23;18.23;;;9.67;;
71769;SDS011;66386;52.122;5.420;2023-05-14T00:03:49;15.73;;;9.90;;
71769;SDS011;66386;52.122;5.420;2023-05-14T00:06:16;13.07;;;9.07;;
71769;SDS011;66386;52.122;5.420;2023-05-14T00:08:43;13.30;;;9.38;;
71769;SDS011;66386;52.122;5.420;2023-05-14T00:11:09;14.77;;;9.50;;
71769;SDS011;66386;52.122;5.420;2023-05-14T00:13:36;13.10;;;9.10;;
71769;SDS011;66386;52.122;5.420;2023-05-14T00:16:02;13.38;;;9.55;;
71769;SDS011;66386;52.122;5.420;2023-05-14T00:18:29;13.85;;;9.73;;
71769;SDS011;66386;52.122;5.420;2023-05-14T00:20:56;16.40;;;9.70;;
71769;SDS011;66386;52.122;5.420;2023-05-14T00:23:22;15.45;;;10.10;;
71769;SDS011;66386;52.122;5.420;2023-05-14T00:25:49;14.97;;;9.90;;
71769;SDS011;66386;52.122;5.420;2023-05-14T00:28:15;16.67;;;9.68;;
71769;SDS011;66386;52.122;5.420;2023-05-14T00:30:42;10.40;;;9.02;;
71769;SDS011;66386;52.122;5.420;2023-05-14T00:33:08;14.32;;;8.68;;
71769;SDS011;66386;52.122;5.420;2023-05-14T00:35:35;17.13;;;9.57;;
71769;SDS011;66386;52.122;5.420;2023-05-14T00:38:01;12.27;;;9.07;;
71769;SDS011;66386;52.122;5.420;2023-05-14T00:40:28;14.80;;;9.88;;
71769;SDS011;66386;52.122;5.420;2023-05-14T00:42:55;12.32;;;9.15;;
71769;SDS011;66386;52.122;5.420;2023-05-14T00:45:22;17.85;;;9.80;;
71769;SDS011;66386;52.122;5.420;2023-05-14T00:47:49;14.02;;;9.10;;
71769;SDS011;66386;52.122;5.420;2023-05-14T00:50:16;15.77;;;9.23;;
71769;SDS011;66386;52.122;5.420;2023-05-14T00:52:43;16.85;;;9.73;;
71769;SDS011;66386;52.122;5.420;2023-05-14T00:55:10;14.90;;;9.02;;
71769;SDS011;66386;52.122;5.420;2023-05-14T00:57:41;13.68;;;8.80;;
71769;SDS011;66386;52.122;5.420;2023-05-14T01:00:08;13.27;;;9.38;;
71769;SDS011;66386;52.122;5.420;2023-05-14T01:02:35;14.00;;;9.23;;
71769;SDS011;66386;52.122;5.420;2023-05-14T01:05:01;11.25;;;8.18;;
71769;SDS011;66386;52.122;5.420;2023-05-14T01:07:49;13.27;;;9.18;;
71769;SDS011;66386;52.122;5.420;2023-05-14T01:10:28;12.90;;;8.15;;
71769;SDS011;66386;52.122;5.420;2023-05-14T01:13:09;17.33;;;9.25;;
71769;SDS011;66386;52.122;5.420;2023-05-14T01:15:49;11.63;;;8.60;;
71769;SDS011;66386;52.122;5.420;2023-05-14T01:18:17;15.02;;;9.15;;
71769;SDS011;66386;52.122;5.420;2023-05-14T01:20:44;15.18;;;9.25;;
71769;SDS011;66386;52.122;5.420;2023-05-14T01:23:11;15.88;;;8.68;;
71769;SDS011;66386;52.122;5.420;2023-05-14T01:25:37;18.15;;;10.13;;
71769;SDS011;66386;52.122;5.420;2023-05-14T01:28:05;13.13;;;8.60;;
71769;SDS011;66386;52.122;5.420;2023-05-14T01:30:38;16.42;;;9.18;;
71769;SDS011;66386;52.122;5.420;2023-05-14T01:33:12;14.77;;;9.10;;
71769;SDS011;66386;52.122;5.420;2023-05-14T01:35:41;15.55;;;9.02;;
71769;SDS011;66386;52.122;5.420;2023-05-14T01:38:10;12.20;;;8.93;;
71769;SDS011;66386;52.122;5.420;2023-05-14T01:40:39;14.93;;;8.77;;
71769;SDS011;66386;52.122;5.420;2023-05-14T01:43:06;15.00;;;8.68;;
71769;SDS011;66386;52.122;5.420;2023-05-14T01:45:34;17.85;;;9.20;;
71769;SDS011;66386;52.122;5.420;2023-05-14T01:48:02;14.25;;;9.07;;
71769;SDS011;66386;52.122;5.420;2023-05-14T01:50:30;14.45;;;9.73;;
71769;SDS011;66386;52.122;5.420;2023-05-14T01:52:56;11.73;;;8.57;;
71769;SDS011;66386;52.122;5.420;2023-05-14T01:55:23;13.95;;;9.40;;
71769;SDS011;66386;52.122;5.420;2023-05-14T01:57:50;15.27;;;9.13;;
71769;SDS011;66386;52.122;5.420;2023-05-14T02:00:18;13.55;;;8.82;;
71769;SDS011;66386;52.122;5.420;2023-05-14T02:02:45;16.52;;;9.50;;
71769;SDS011;66386;52.122;5.420;2023-05-14T02:05:12;13.60;;;9.10;;
71769;SDS011;66386;52.122;5.420;2023-05-14T02:07:38;15.10;;;9.23;;
71769;SDS011;66386;52.122;5.420;2023-05-14T02:10:05;12.77;;;8.85;;
71769;SDS011;66386;52.122;5.420;2023-05-14T02:12:32;13.93;;;9.40;;
71769;SDS011;66386;52.122;5.420;2023-05-14T02:14:59;15.00;;;9.45;;
71769;SDS011;66386;52.122;5.420;2023-05-14T02:17:25;18.40;;;10.63;;
71769;SDS011;66386;52.122;5.420;2023-05-14T02:19:52;19.60;;;10.02;;
71769;SDS011;66386;52.122;5.420;2023-05-14T02:22:18;15.82;;;10.38;;
71769;SDS011;66386;52.122;5.420;2023-05-14T02:24:45;13.73;;;9.15;;
71769;SDS011;66386;52.122;5.420;2023-05-14T02:27:11;18.52;;;9.30;;
71769;SDS011;66386;52.122;5.420;2023-05-14T02:29:38;13.47;;;8.53;;
71769;SDS011;66386;52.122;5.420;2023-05-14T02:32:05;13.93;;;8.68;;
71769;SDS011;66386;52.122;5.420;2023-05-14T02:34:31;15.70;;;8.68;;
71769;SDS011;66386;52.122;5.420;2023-05-14T02:36:59;16.65;;;9.68;;
71769;SDS011;66386;52.122;5.420;2023-05-14T02:39:26;13.38;;;8.13;;
71769;SDS011;66386;52.122;5.420;2023-05-14T02:41:52;15.37;;;8.87;;
71769;SDS011;66386;52.122;5.420;2023-05-14T02:44:19;15.23;;;8.80;;
71769;SDS011;66386;52.122;5.420;2023-05-14T02:46:45;12.95;;;8.55;;
71769;SDS011;66386;52.122;5.420;2023-05-14T02:49:12;15.00;;;8.60;;
71769;SDS011;66386;52.122;5.420;2023-05-14T02:51:38;16.63;;;9.15;;
71769;SDS011;66386;52.122;5.420;2023-05-14T02:54:05;13.23;;;9.50;;
71769;SDS011;66386;52.122;5.420;2023-05-14T02:56:32;18.83;;;9.27;;
71769;SDS011;66386;52.122;5.420;2023-05-14T02:58:58;16.58;;;9.52;;
71769;SDS011;66386;52.122;5.420;2023-05-14T03:01:25;13.52;;;8.95;;
71769;SDS011;66386;52.122;5.420;2023-05-14T03:03:52;17.50;;;9.35;;
71769;SDS011;66386;52.122;5.420;2023-05-14T03:06:19;12.53;;;9.37;;
71769;SDS011;66386;52.122;5.420;2023-05-14T03:08:45;12.68;;;8.90;;
71769;SDS011;66386;52.122;5.420;2023-05-14T03:11:12;13.68;;;9.20;;
71769;SDS011;66386;52.122;5.420;2023-05-14T03:13:38;12.40;;;8.75;;
71769;SDS011;66386;52.122;5.420;2023-05-14T03:16:05;17.17;;;9.68;;
71769;SDS011;66386;52.122;5.420;2023-05-14T03:18:31;15.47;;;9.13;;
71769;SDS011;66386;52.122;5.420;2023-05-14T03:21:00;17.20;;;8.75;;
71769;SDS011;66386;52.122;5.420;2023-05-14T03:23:26;13.48;;;9.02;;
71769;SDS011;66386;52.122;5.420;2023-05-14T03:25:53;15.52;;;9.18;;
71769;SDS011;66386;52.122;5.420;2023-05-14T03:28:19;16.98;;;10.88;;
71769;SDS011;66386;52.122;5.420;2023-05-14T03:30:45;17.40;;;9.07;;
71769;SDS011;66386;52.122;5.420;2023-05-14T03:33:12;14.43;;;8.90;;
71769;SDS011;66386;52.122;5.420;2023-05-14T03:35:39;16.55;;;9.27;;
71769;SDS011;66386;52.122;5.420;2023-05-14T03:38:05;14.13;;;8.80;;
71769;SDS011;66386;52.122;5.420;2023-05-14T03:40:32;15.93;;;9.35;;
71769;SDS011;66386;52.122;5.420;2023-05-14T03:42:59;17.23;;;9.30;;
71769;SDS011;66386;52.122;5.420;2023-05-14T03:45:25;14.05;;;9.25;;
71769;SDS011;66386;52.122;5.420;2023-05-14T03:47:53;12.98;;;9.75;;
71769;SDS011;66386;52.122;5.420;2023-05-14T03:50:20;15.32;;;9.85;;
71769;SDS011;66386;52.122;5.420;2023-05-14T03:52:47;13.75;;;8.98;;
71769;SDS011;66386;52.122;5.420;2023-05-14T03:55:13;16.33;;;9.27;;
71769;SDS011;66386;52.122;5.420;2023-05-14T03:57:40;16.90;;;9.38;;
71769;SDS011;66386;52.122;5.420;2023-05-14T04:00:06;14.77;;;8.68;;
71769;SDS011;66386;52.122;5.420;2023-05-14T04:02:33;12.82;;;8.85;;
71769;SDS011;66386;52.122;5.420;2023-05-14T04:05:00;14.20;;;8.07;;
71769;SDS011;66386;52.122;5.420;2023-05-14T04:07:26;14.90;;;8.63;;
71769;SDS011;66386;52.122;5.420;2023-05-14T04:09:53;18.70;;;9.20;;
71769;SDS011;66386;52.122;5.420;2023-05-14T04:12:19;17.75;;;10.00;;
71769;SDS011;66386;52.122;5.420;2023-05-14T04:14:46;16.70;;;8.85;;
71769;SDS011;66386;52.122;5.420;2023-05-14T04:17:12;19.05;;;8.73;;
71769;SDS011;66386;52.122;5.420;2023-05-14T04:19:39;14.50;;;8.70;;
71769;SDS011;66386;52.122;5.420;2023-05-14T04:22:05;12.35;;;8.07;;
71769;SDS011;66386;52.122;5.420;2023-05-14T04:24:32;11.82;;;8.68;;
71769;SDS011;66386;52.122;5.420;2023-05-14T04:26:58;15.00;;;8.38;;
71769;SDS011;66386;52.122;5.420;2023-05-14T04:29:25;15.15;;;8.20;;
71769;SDS011;66386;52.122;5.420;2023-05-14T04:31:51;13.03;;;7.90;;
71769;SDS011;66386;52.122;5.420;2023-05-14T04:34:18;17.45;;;7.90;;
71769;SDS011;66386;52.122;5.420;2023-05-14T04:36:45;12.82;;;8.50;;
71769;SDS011;66386;52.122;5.420;2023-05-14T04:39:11;14.35;;;8.23;;
71769;SDS011;66386;52.122;5.420;2023-05-14T04:41:38;15.10;;;8.07;;
71769;SDS011;66386;52.122;5.420;2023-05-14T04:44:04;11.43;;;7.37;;
71769;SDS011;66386;52.122;5.420;2023-05-14T04:46:32;12.48;;;8.25;;
71769;SDS011;66386;52.122;5.420;2023-05-14T04:48:58;17.23;;;8.30;;
71769;SDS011;66386;52.122;5.420;2023-05-14T04:51:24;12.27;;;8.27;;
71769;SDS011;66386;52.122;5.420;2023-05-14T04:53:51;11.63;;;7.47;;
71769;SDS011;66386;52.122;5.420;2023-05-14T04:56:17;11.17;;;7.57;;
71769;SDS011;66386;52.122;5.420;2023-05-14T04:58:44;10.13;;;6.95;;
71769;SDS011;66386;52.122;5.420;2023-05-14T05:01:10;11.85;;;7.53;;
71769;SDS011;66386;52.122;5.420;2023-05-14T05:03:37;18.15;;;7.18;;
71769;SDS011;66386;52.122;5.420;2023-05-14T05:06:03;11.80;;;7.10;;
71769;SDS011;66386;52.122;5.420;2023-05-14T05:08:30;9.27;;;6.60;;
71769;SDS011;66386;52.122;5.420;2023-05-14T05:10:56;11.80;;;7.72;;
71769;SDS011;66386;52.122;5.420;2023-05-14T05:13:23;10.30;;;7.28;;
71769;SDS011;66386;52.122;5.420;2023-05-14T05:15:49;12.43;;;7.60;;
71769;SDS011;66386;52.122;5.420;2023-05-14T05:18:16;10.70;;;7.38;;
71769;SDS011;66386;52.122;5.420;2023-05-14T05:20:42;11.83;;;7.10;;
71769;SDS011;66386;52.122;5.420;2023-05-14T05:23:09;13.45;;;7.78;;
71769;SDS011;66386;52.122;5.420;2023-05-14T05:25:36;13.30;;;7.57;;
71769;SDS011;66386;52.122;5.420;2023-05-14T05:28:02;11.70;;;7.18;;
71769;SDS011;66386;52.122;5.420;2023-05-14T05:30:29;10.13;;;6.93;;
71769;SDS011;66386;52.122;5.420;2023-05-14T05:32:55;10.37;;;8.20;;
71769;SDS011;66386;52.122;5.420;2023-05-14T05:35:22;11.45;;;6.85;;
71769;SDS011;66386;52.122;5.420;2023-05-14T05:37:49;11.23;;;7.22;;
71769;SDS011;66386;52.122;5.420;2023-05-14T05:40:16;11.30;;;6.90;;
71769;SDS011;66386;52.122;5.420;2023-05-14T05:42:42;13.77;;;7.53;;
71769;SDS011;66386;52.122;5.420;2023-05-14T05:45:09;11.77;;;7.13;;
71769;SDS011;66386;52.122;5.420;2023-05-14T05:47:35;10.38;;;6.78;;
71769;SDS011;66386;52.122;5.420;2023-05-14T05:50:02;11.48;;;7.10;;
71769;SDS011;66386;52.122;5.420;2023-05-14T05:52:29;12.70;;;6.82;;
71769;SDS011;66386;52.122;5.420;2023-05-14T05:54:55;9.52;;;7.00;;
71769;SDS011;66386;52.122;5.420;2023-05-14T05:57:22;8.87;;;6.13;;
71769;SDS011;66386;52.122;5.420;2023-05-14T05:59:51;9.95;;;6.55;;
71769;SDS011;66386;52.122;5.420;2023-05-14T06:02:18;11.13;;;6.60;;
71769;SDS011;66386;52.122;5.420;2023-05-14T06:04:45;10.23;;;6.70;;
71769;SDS011;66386;52.122;5.420;2023-05-14T06:07:11;11.95;;;6.93;;
71769;SDS011;66386;52.122;5.420;2023-05-14T06:09:38;9.57;;;7.20;;
71769;SDS011;66386;52.122;5.420;2023-05-14T06:12:04;10.38;;;6.72;;
71769;SDS011;66386;52.122;5.420;2023-05-14T06:14:31;10.70;;;6.75;;
71769;SDS011;66386;52.122;5.420;2023-05-14T06:16:57;8.23;;;6.68;;
71769;SDS011;66386;52.122;5.420;2023-05-14T06:19:24;14.73;;;7.82;;
71769;SDS011;66386;52.122;5.420;2023-05-14T06:21:50;9.13;;;6.53;;
71769;SDS011;66386;52.122;5.420;2023-05-14T06:24:17;11.07;;;6.40;;
71769;SDS011;66386;52.122;5.420;2023-05-14T06:26:45;8.65;;;6.15;;
71769;SDS011;66386;52.122;5.420;2023-05-14T06:29:11;12.60;;;6.47;;
71769;SDS011;66386;52.122;5.420;2023-05-14T06:31:38;10.90;;;7.18;;
71769;SDS011;66386;52.122;5.420;2023-05-14T06:34:04;9.60;;;6.77;;
71769;SDS011;66386;52.122;5.420;2023-05-14T06:36:31;15.32;;;7.80;;
71769;SDS011;66386;52.122;5.420;2023-05-14T06:38:57;12.02;;;6.43;;
71769;SDS011;66386;52.122;5.420;2023-05-14T06:41:24;7.05;;;6.25;;
71769;SDS011;66386;52.122;5.420;2023-05-14T06:43:51;9.40;;;6.30;;
71769;SDS011;66386;52.122;5.420;2023-05-14T06:46:17;9.97;;;6.60;;
71769;SDS011;66386;52.122;5.420;2023-05-14T06:48:44;8.80;;;6.75;;
71769;SDS011;66386;52.122;5.420;2023-05-14T06:51:10;7.68;;;6.20;;
71769;SDS011;66386;52.122;5.420;2023-05-14T06:53:38;8.50;;;6.20;;
71769;SDS011;66386;52.122;5.420;2023-05-14T06:56:05;8.48;;;6.10;;
71769;SDS011;66386;52.122;5.420;2023-05-14T06:58:32;8.37;;;5.70;;
71769;SDS011;66386;52.122;5.420;2023-05-14T07:00:59;8.63;;;6.55;;
71769;SDS011;66386;52.122;5.420;2023-05-14T07:03:25;7.93;;;6.03;;
71769;SDS011;66386;52.122;5.420;2023-05-14T07:05:52;8.05;;;6.70;;
71769;SDS011;66386;52.122;5.420;2023-05-14T07:08:18;9.27;;;6.20;;
71769;SDS011;66386;52.122;5.420;2023-05-14T07:10:45;9.07;;;6.10;;
71769;SDS011;66386;52.122;5.420;2023-05-14T07:13:11;8.63;;;6.68;;
71769;SDS011;66386;52.122;5.420;2023-05-14T07:15:38;7.13;;;5.75;;
71769;SDS011;66386;52.122;5.420;2023-05-14T07:18:04;7.85;;;5.88;;
71769;SDS011;66386;52.122;5.420;2023-05-14T07:20:30;10.10;;;5.80;;
71769;SDS011;66386;52.122;5.420;2023-05-14T07:22:57;9.60;;;6.00;;
71769;SDS011;66386;52.122;5.420;2023-05-14T07:25:23;10.88;;;5.70;;
71769;SDS011;66386;52.122;5.420;2023-05-14T07:27:50;8.13;;;5.90;;
71769;SDS011;66386;52.122;5.420;2023-05-14T07:30:16;6.63;;;6.03;;
71769;SDS011;66386;52.122;5.420;2023-05-14T07:32:43;9.80;;;5.90;;
71769;SDS011;66386;52.122;5.420;2023-05-14T07:35:10;8.80;;;5.97;;
71769;SDS011;66386;52.122;5.420;2023-05-14T07:37:36;11.70;;;6.38;;
71769;SDS011;66386;52.122;5.420;2023-05-14T07:40:03;6.45;;;5.47;;
71769;SDS011;66386;52.122;5.420;2023-05-14T07:42:30;7.70;;;5.90;;
71769;SDS011;66386;52.122;5.420;2023-05-14T07:45:02;7.95;;;6.50;;
71769;SDS011;66386;52.122;5.420;2023-05-14T07:47:29;8.13;;;5.80;;
71769;SDS011;66386;52.122;5.420;2023-05-14T07:49:56;7.50;;;6.10;;
71769;SDS011;66386;52.122;5.420;2023-05-14T07:52:24;9.48;;;6.93;;
71769;SDS011;66386;52.122;5.420;2023-05-14T07:54:51;9.68;;;7.07;;
71769;SDS011;66386;52.122;5.420;2023-05-14T07:57:18;10.07;;;7.00;;
71769;SDS011;66386;52.122;5.420;2023-05-14T07:59:45;11.17;;;6.47;;
71769;SDS011;66386;52.122;5.420;2023-05-14T08:02:12;9.80;;;6.20;;
71769;SDS011;66386;52.122;5.420;2023-05-14T08:04:41;9.45;;;6.70;;
71769;SDS011;66386;52.122;5.420;2023-05-14T08:07:07;6.45;;;5.95;;
71769;SDS011;66386;52.122;5.420;2023-05-14T08:09:34;8.77;;;7.13;;
71769;SDS011;66386;52.122;5.420;2023-05-14T08:12:01;6.80;;;6.13;;
71769;SDS011;66386;52.122;5.420;2023-05-14T08:14:27;9.05;;;7.10;;
71769;SDS011;66386;52.122;5.420;2023-05-14T08:16:53;7.68;;;6.57;;
71769;SDS011;66386;52.122;5.420;2023-05-14T08:19:20;11.32;;;7.15;;
71769;SDS011;66386;52.122;5.420;2023-05-14T08:21:46;8.65;;;7.20;;
71769;SDS011;66386;52.122;5.420;2023-05-14T08:24:13;9.27;;;6.97;;
71769;SDS011;66386;52.122;5.420;2023-05-14T08:26:40;8.70;;;7.05;;
71769;SDS011;66386;52.122;5.420;2023-05-14T08:29:07;8.85;;;7.22;;
71769;SDS011;66386;52.122;5.420;2023-05-14T08:31:36;10.82;;;7.72;;
71769;SDS011;66386;52.122;5.420;2023-05-14T08:34:02;13.00;;;7.68;;
71769;SDS011;66386;52.122;5.420;2023-05-14T08:36:28;7.50;;;6.23;;
71769;SDS011;66386;52.122;5.420;2023-05-14T08:38:55;10.10;;;6.63;;
71769;SDS011;66386;52.122;5.420;2023-05-14T08:41:22;8.00;;;6.30;;
71769;SDS011;66386;52.122;5.420;2023-05-14T08:44:11;8.55;;;6.63;;
71769;SDS011;66386;52.122;5.420;2023-05-14T08:46:39;9.57;;;6.65;;
71769;SDS011;66386;52.122;5.420;2023-05-14T08:52:08;8.93;;;6.07;;
71769;SDS011;66386;52.122;5.420;2023-05-14T08:54:35;8.20;;;6.85;;
71769;SDS011;66386;52.122;5.420;2023-05-14T08:57:02;8.02;;;6.30;;
71769;SDS011;66386;52.122;5.420;2023-05-14T08:59:30;8.05;;;6.07;;
71769;SDS011;66386;52.122;5.420;2023-05-14T09:01:57;7.17;;;6.10;;
71769;SDS011;66386;52.122;5.420;2023-05-14T09:04:27;7.43;;;5.82;;
71769;SDS011;66386;52.122;5.420;2023-05-14T09:06:56;9.23;;;5.80;;
71769;SDS011;66386;52.122;5.420;2023-05-14T09:09:26;7.15;;;5.28;;
71769;SDS011;66386;52.122;5.420;2023-05-14T09:11:53;8.27;;;5.72;;
71769;SDS011;66386;52.122;5.420;2023-05-14T09:14:21;8.57;;;5.30;;
71769;SDS011;66386;52.122;5.420;2023-05-14T09:16:49;8.43;;;6.40;;
71769;SDS011;66386;52.122;5.420;2023-05-14T09:19:17;8.40;;;5.60;;
71769;SDS011;66386;52.122;5.420;2023-05-14T09:21:45;8.02;;;5.63;;
71769;SDS011;66386;52.122;5.420;2023-05-14T09:24:19;6.53;;;5.43;;
71769;SDS011;66386;52.122;5.420;2023-05-14T09:26:48;7.57;;;5.83;;
71769;SDS011;66386;52.122;5.420;2023-05-14T09:29:16;9.68;;;5.82;;
71769;SDS011;66386;52.122;5.420;2023-05-14T09:31:43;7.93;;;5.80;;
71769;SDS011;66386;52.122;5.420;2023-05-14T09:34:10;8.23;;;6.20;;
71769;SDS011;66386;52.122;5.420;2023-05-14T09:36:37;11.40;;;10.30;;
71769;SDS011;66386;52.122;5.420;2023-05-14T09:39:04;9.83;;;8.70;;
71769;SDS011;66386;52.122;5.420;2023-05-14T09:41:30;27.13;;;20.45;;
71769;SDS011;66386;52.122;5.420;2023-05-14T09:43:57;10.23;;;7.50;;
71769;SDS011;66386;52.122;5.420;2023-05-14T09:46:23;12.27;;;9.93;;
71769;SDS011;66386;52.122;5.420;2023-05-14T09:48:55;8.77;;;7.38;;
71769;SDS011;66386;52.122;5.420;2023-05-14T09:51:22;7.67;;;6.83;;
71769;SDS011;66386;52.122;5.420;2023-05-14T09:53:49;9.50;;;8.05;;
71769;SDS011;66386;52.122;5.420;2023-05-14T09:56:18;11.43;;;8.38;;
71769;SDS011;66386;52.122;5.420;2023-05-14T09:58:46;8.00;;;5.55;;
71769;SDS011;66386;52.122;5.420;2023-05-14T10:01:13;7.00;;;5.25;;
71769;SDS011;66386;52.122;5.420;2023-05-14T10:03:43;9.30;;;6.00;;
71769;SDS011;66386;52.122;5.420;2023-05-14T10:06:10;6.65;;;5.65;;
71769;SDS011;66386;52.122;5.420;2023-05-14T10:08:39;6.43;;;5.80;;
71769;SDS011;66386;52.122;5.420;2023-05-14T10:11:12;10.25;;;6.47;;
71769;SDS011;66386;52.122;5.420;2023-05-14T10:13:47;8.25;;;5.80;;
71769;SDS011;66386;52.122;5.420;2023-05-14T10:16:26;9.30;;;7.33;;
71769;SDS011;66386;52.122;5.420;2023-05-14T10:18:59;9.95;;;6.55;;
71769;SDS011;66386;52.122;5.420;2023-05-14T10:21:34;10.45;;;6.25;;
71769;SDS011;66386;52.122;5.420;2023-05-14T10:24:05;8.48;;;5.25;;
71769;SDS011;66386;52.122;5.420;2023-05-14T10:26:33;10.43;;;7.18;;
71769;SDS011;66386;52.122;5.420;2023-05-14T10:29:04;12.37;;;6.30;;
71769;SDS011;66386;52.122;5.420;2023-05-14T10:31:50;7.90;;;5.55;;
71769;SDS011;66386;52.122;5.420;2023-05-14T10:36:58;11.65;;;7.90;;
71769;SDS011;66386;52.122;5.420;2023-05-14T10:42:18;8.90;;;6.17;;
71769;SDS011;66386;52.122;5.420;2023-05-14T10:44:51;8.32;;;5.28;;
71769;SDS011;66386;52.122;5.420;2023-05-14T10:47:20;6.60;;;5.55;;
71769;SDS011;66386;52.122;5.420;2023-05-14T10:49:47;11.10;;;6.93;;
71769;SDS011;66386;52.122;5.420;2023-05-14T10:52:15;11.65;;;5.65;;
71769;SDS011;66386;52.122;5.420;2023-05-14T10:54:48;8.00;;;4.90;;
71769;SDS011;66386;52.122;5.420;2023-05-14T10:57:22;7.72;;;5.13;;
71769;SDS011;66386;52.122;5.420;2023-05-14T10:59:53;8.70;;;5.43;;
71769;SDS011;66386;52.122;5.420;2023-05-14T11:02:23;9.25;;;4.68;;
71769;SDS011;66386;52.122;5.420;2023-05-14T11:04:57;8.43;;;5.00;;
71769;SDS011;66386;52.122;5.420;2023-05-14T11:07:42;8.50;;;4.97;;
71769;SDS011;66386;52.122;5.420;2023-05-14T11:10:13;8.35;;;4.50;;
71769;SDS011;66386;52.122;5.420;2023-05-14T11:12:44;6.85;;;4.95;;
71769;SDS011;66386;52.122;5.420;2023-05-14T11:15:22;6.43;;;4.20;;
71769;SDS011;66386;52.122;5.420;2023-05-14T11:17:51;6.68;;;4.70;;
71769;SDS011;66386;52.122;5.420;2023-05-14T11:20:19;6.17;;;4.53;;
71769;SDS011;66386;52.122;5.420;2023-05-14T11:22:46;7.40;;;4.22;;
71769;SDS011;66386;52.122;5.420;2023-05-14T11:25:14;7.80;;;4.53;;
71769;SDS011;66386;52.122;5.420;2023-05-14T11:27:44;9.32;;;4.68;;
71769;SDS011;66386;52.122;5.420;2023-05-14T11:30:15;8.18;;;4.70;;
71769;SDS011;66386;52.122;5.420;2023-05-14T11:32:44;6.93;;;4.73;;
71769;SDS011;66386;52.122;5.420;2023-05-14T11:35:12;4.93;;;4.15;;
71769;SDS011;66386;52.122;5.420;2023-05-14T11:37:39;8.35;;;4.97;;
71769;SDS011;66386;52.122;5.420;2023-05-14T11:40:06;7.43;;;4.90;;
71769;SDS011;66386;52.122;5.420;2023-05-14T11:42:37;7.97;;;4.50;;
71769;SDS011;66386;52.122;5.420;2023-05-14T11:45:04;8.20;;;4.50;;
71769;SDS011;66386;52.122;5.420;2023-05-14T11:47:31;6.43;;;4.50;;
71769;SDS011;66386;52.122;5.420;2023-05-14T11:49:59;10.07;;;4.47;;
71769;SDS011;66386;52.122;5.420;2023-05-14T11:52:26;7.97;;;4.88;;
71769;SDS011;66386;52.122;5.420;2023-05-14T11:54:52;8.10;;;4.75;;
71769;SDS011;66386;52.122;5.420;2023-05-14T11:57:19;9.47;;;5.20;;
71769;SDS011;66386;52.122;5.420;2023-05-14T11:59:47;7.60;;;5.20;;
71769;SDS011;66386;52.122;5.420;2023-05-14T12:02:16;6.47;;;4.50;;
71769;SDS011;66386;52.122;5.420;2023-05-14T12:04:43;7.10;;;4.78;;
71769;SDS011;66386;52.122;5.420;2023-05-14T12:07:15;8.93;;;4.45;;
71769;SDS011;66386;52.122;5.420;2023-05-14T12:09:42;5.27;;;3.77;;
71769;SDS011;66386;52.122;5.420;2023-05-14T12:12:17;7.53;;;3.95;;
71769;SDS011;66386;52.122;5.420;2023-05-14T12:14:45;6.80;;;4.20;;
71769;SDS011;66386;52.122;5.420;2023-05-14T12:17:19;4.85;;;4.25;;
71769;SDS011;66386;52.122;5.420;2023-05-14T12:19:48;7.97;;;4.47;;
71769;SDS011;66386;52.122;5.420;2023-05-14T12:22:17;7.37;;;3.97;;
71769;SDS011;66386;52.122;5.420;2023-05-14T12:24:51;6.40;;;4.35;;
71769;SDS011;66386;52.122;5.420;2023-05-14T12:27:22;12.05;;;5.30;;
71769;SDS011;66386;52.122;5.420;2023-05-14T12:29:50;7.00;;;4.20;;
71769;SDS011;66386;52.122;5.420;2023-05-14T12:32:38;7.53;;;4.20;;
71769;SDS011;66386;52.122;5.420;2023-05-14T12:35:08;6.73;;;4.40;;
71769;SDS011;66386;52.122;5.420;2023-05-14T12:37:35;5.43;;;3.88;;
71769;SDS011;66386;52.122;5.420;2023-05-14T12:40:03;8.10;;;4.30;;
71769;SDS011;66386;52.122;5.420;2023-05-14T12:42:34;10.15;;;4.43;;
71769;SDS011;66386;52.122;5.420;2023-05-14T12:45:00;8.73;;;4.30;;
71769;SDS011;66386;52.122;5.420;2023-05-14T12:47:30;8.30;;;4.60;;
71769;SDS011;66386;52.122;5.420;2023-05-14T12:49:57;6.35;;;4.00;;
71769;SDS011;66386;52.122;5.420;2023-05-14T12:52:24;5.97;;;4.13;;
71769;SDS011;66386;52.122;5.420;2023-05-14T12:55:03;7.15;;;4.32;;
71769;SDS011;66386;52.122;5.420;2023-05-14T12:57:30;8.00;;;4.43;;
71769;SDS011;66386;52.122;5.420;2023-05-14T12:59:57;8.33;;;4.23;;
71769;SDS011;66386;52.122;5.420;2023-05-14T13:02:24;9.45;;;4.03;;
71769;SDS011;66386;52.122;5.420;2023-05-14T13:04:50;8.30;;;5.10;;
71769;SDS011;66386;52.122;5.420;2023-05-14T13:07:17;7.57;;;4.03;;
71769;SDS011;66386;52.122;5.420;2023-05-14T13:09:43;8.80;;;5.07;;
71769;SDS011;66386;52.122;5.420;2023-05-14T13:12:10;7.27;;;4.40;;
71769;SDS011;66386;52.122;5.420;2023-05-14T13:14:36;8.20;;;4.47;;
71769;SDS011;66386;52.122;5.420;2023-05-14T13:17:03;6.63;;;3.90;;
71769;SDS011;66386;52.122;5.420;2023-05-14T13:19:30;8.20;;;4.35;;
71769;SDS011;66386;52.122;5.420;2023-05-14T13:21:56;7.15;;;4.20;;
71769;SDS011;66386;52.122;5.420;2023-05-14T13:24:23;10.40;;;4.73;;
71769;SDS011;66386;52.122;5.420;2023-05-14T13:26:50;7.60;;;4.75;;
71769;SDS011;66386;52.122;5.420;2023-05-14T13:29:16;6.72;;;4.07;;
71769;SDS011;66386;52.122;5.420;2023-05-14T13:31:43;6.60;;;5.13;;
71769;SDS011;66386;52.122;5.420;2023-05-14T13:34:09;6.43;;;4.47;;
71769;SDS011;66386;52.122;5.420;2023-05-14T13:36:35;8.43;;;4.00;;
71769;SDS011;66386;52.122;5.420;2023-05-14T13:39:05;4.85;;;4.30;;
71769;SDS011;66386;52.122;5.420;2023-05-14T13:41:32;5.78;;;4.80;;
71769;SDS011;66386;52.122;5.420;2023-05-14T13:44:00;7.30;;;3.90;;
71769;SDS011;66386;52.122;5.420;2023-05-14T13:46:27;6.22;;;4.00;;
71769;SDS011;66386;52.122;5.420;2023-05-14T13:48:54;7.80;;;4.50;;
71769;SDS011;66386;52.122;5.420;2023-05-14T13:51:21;5.82;;;4.53;;
71769;SDS011;66386;52.122;5.420;2023-05-14T13:53:48;4.95;;;3.67;;
71769;SDS011;66386;52.122;5.420;2023-05-14T13:56:15;8.50;;;4.00;;
71769;SDS011;66386;52.122;5.420;2023-05-14T13:58:41;8.35;;;4.28;;
71769;SDS011;66386;52.122;5.420;2023-05-14T14:01:08;4.37;;;3.70;;
71769;SDS011;66386;52.122;5.420;2023-05-14T14:03:34;7.63;;;3.85;;
71769;SDS011;66386;52.122;5.420;2023-05-14T14:06:01;6.45;;;3.60;;
71769;SDS011;66386;52.122;5.420;2023-05-14T14:08:27;7.60;;;4.30;;
71769;SDS011;66386;52.122;5.420;2023-05-14T14:10:54;7.38;;;4.40;;
71769;SDS011;66386;52.122;5.420;2023-05-14T14:13:21;10.43;;;3.93;;
71769;SDS011;66386;52.122;5.420;2023-05-14T14:15:47;7.75;;;3.67;;
71769;SDS011;66386;52.122;5.420;2023-05-14T14:18:15;7.70;;;5.10;;
71769;SDS011;66386;52.122;5.420;2023-05-14T14:20:41;6.05;;;3.80;;
71769;SDS011;66386;52.122;5.420;2023-05-14T14:23:08;5.78;;;4.20;;
71769;SDS011;66386;52.122;5.420;2023-05-14T14:25:34;8.53;;;5.17;;
71769;SDS011;66386;52.122;5.420;2023-05-14T14:28:01;8.32;;;4.28;;
71769;SDS011;66386;52.122;5.420;2023-05-14T14:30:27;5.80;;;3.50;;
71769;SDS011;66386;52.122;5.420;2023-05-14T14:32:54;7.25;;;3.28;;
71769;SDS011;66386;52.122;5.420;2023-05-14T14:35:21;5.28;;;3.67;;
71769;SDS011;66386;52.122;5.420;2023-05-14T14:37:48;5.50;;;3.43;;
71769;SDS011;66386;52.122;5.420;2023-05-14T14:40:17;8.90;;;4.47;;
71769;SDS011;66386;52.122;5.420;2023-05-14T14:42:44;7.15;;;3.85;;
71769;SDS011;66386;52.122;5.420;2023-05-14T14:45:10;7.68;;;3.72;;
71769;SDS011;66386;52.122;5.420;2023-05-14T14:47:37;8.77;;;4.22;;
71769;SDS011;66386;52.122;5.420;2023-05-14T14:50:07;9.80;;;4.40;;
71769;SDS011;66386;52.122;5.420;2023-05-14T14:52:35;5.70;;;3.65;;